createdAt,value
2018-01-16T00:01:50.617Z,55.20
2018-01-16T00:04:26.114Z,55.60
2018-01-16T00:07:03.371Z,55.90
2018-01-16T00:09:37.506Z,56.40
2018-01-16T00:12:12.153Z,56.80
2018-01-16T00:14:47.331Z,56.20
2018-01-16T00:17:21.509Z,55.80
2018-01-16T00:19:55.603Z,55.30
2018-01-16T00:22:41.328Z,55.20
2018-01-16T00:25:16.071Z,54.80
2018-01-16T00:27:51.000Z,54.80
2018-01-16T00:30:24.847Z,54.70
2018-01-16T00:32:59.379Z,54.90
2018-01-16T00:35:33.537Z,55.40
2018-01-16T00:38:08.527Z,56.90
2018-01-16T00:40:42.626Z,56.80
2018-01-16T00:43:17.275Z,57.10
2018-01-16T00:45:52.302Z,57.20
2018-01-16T00:48:26.705Z,58.00
2018-01-16T00:51:00.752Z,58.30
2018-01-16T00:53:35.466Z,58.90
2018-01-16T00:56:09.489Z,60.10
2018-01-16T00:58:43.122Z,60.70
2018-01-16T01:01:18.474Z,62.60
2018-01-16T01:03:54.086Z,62.50
2018-01-16T01:06:28.046Z,63.90
2018-01-16T01:09:02.679Z,68.80
2018-01-16T01:11:38.893Z,70.10
2018-01-16T01:14:15.090Z,70.10
2018-01-16T01:16:50.545Z,78.20
2018-01-16T01:19:25.235Z,78.10
2018-01-16T01:21:59.343Z,81.30
2018-01-16T01:24:33.727Z,82.60
2018-01-16T01:27:08.004Z,82.70
2018-01-16T01:29:42.170Z,83.80
2018-01-16T01:32:16.970Z,81.60
2018-01-16T01:34:51.964Z,81.70
2018-01-16T01:37:26.169Z,80.70
2018-01-16T01:40:00.201Z,81.10
2018-01-16T01:42:35.137Z,81.90
2018-01-16T01:45:09.648Z,81.90
2018-01-16T01:47:43.468Z,80.70
2018-01-16T01:50:18.409Z,78.70
2018-01-16T01:52:52.428Z,78.10
2018-01-16T01:55:27.274Z,78.20
2018-01-16T01:58:02.328Z,77.60
2018-01-16T02:00:36.430Z,77.40
2018-01-16T02:03:12.651Z,76.60
2018-01-16T02:05:47.058Z,76.50
2018-01-16T02:08:21.757Z,75.20
2018-01-16T02:10:56.148Z,75.10
2018-01-16T02:13:30.210Z,72.20
2018-01-16T02:16:05.420Z,73.10
2018-01-16T02:18:40.364Z,70.20
2018-01-16T02:21:14.436Z,70.10
2018-01-16T02:23:48.301Z,68.40
2018-01-16T02:26:22.340Z,66.50
2018-01-16T02:28:57.832Z,67.70
2018-01-16T02:31:32.434Z,70.50
2018-01-16T02:34:07.319Z,74.50
2018-01-16T02:36:44.925Z,74.60
2018-01-16T02:39:19.852Z,72.30
2018-01-16T02:41:54.005Z,71.20
2018-01-16T02:44:27.875Z,72.00
2018-01-16T02:47:02.172Z,67.70
2018-01-16T02:49:36.841Z,65.70
2018-01-16T02:52:11.810Z,65.50
2018-01-16T02:54:47.040Z,65.40
2018-01-16T02:57:21.433Z,63.50
2018-01-16T02:59:55.707Z,62.60
2018-01-16T03:02:31.338Z,61.40
2018-01-16T03:07:46.209Z,63.00
2018-01-16T03:10:21.327Z,60.50
2018-01-16T03:12:55.286Z,60.30
2018-01-16T03:15:32.505Z,61.50
2018-01-16T03:18:06.465Z,60.80
2018-01-16T03:20:40.365Z,61.60
2018-01-16T03:23:15.255Z,62.60
2018-01-16T03:25:49.440Z,63.00
2018-01-16T03:28:24.462Z,63.30
2018-01-16T03:30:59.759Z,65.90
2018-01-16T03:33:35.525Z,65.10
2018-01-16T03:36:10.375Z,65.10
2018-01-16T03:38:45.793Z,66.20
2018-01-16T03:41:20.584Z,69.10
2018-01-16T03:43:54.518Z,69.10
2018-01-16T03:46:28.529Z,70.10
2018-01-16T03:49:04.494Z,70.30
2018-01-16T03:51:38.681Z,71.30
2018-01-16T03:54:13.152Z,72.60
2018-01-16T03:56:47.384Z,74.80
2018-01-16T03:59:22.599Z,74.10
2018-01-16T04:01:56.409Z,74.60
2018-01-16T04:04:30.454Z,74.60
2018-01-16T04:07:04.722Z,75.90
2018-01-16T04:09:38.772Z,77.30
2018-01-16T04:12:14.525Z,78.20
2018-01-16T04:14:50.224Z,78.20
2018-01-16T04:17:24.221Z,78.10
2018-01-16T04:19:58.109Z,81.10
2018-01-16T04:22:32.534Z,83.90
2018-01-16T04:25:06.594Z,83.80
2018-01-16T04:27:40.581Z,86.40
2018-01-16T04:30:14.599Z,87.80
2018-01-16T04:32:48.909Z,87.90
2018-01-16T04:35:22.814Z,87.40
2018-01-16T04:37:57.548Z,90.00
2018-01-16T04:40:32.943Z,90.00
2018-01-16T04:43:06.964Z,89.60
2018-01-16T04:45:41.087Z,90.30
2018-01-16T04:48:16.060Z,90.00
2018-01-16T04:50:50.232Z,89.80
2018-01-16T04:53:24.132Z,91.40
2018-01-16T04:55:59.687Z,91.40
2018-01-16T04:58:34.133Z,91.40
2018-01-16T05:01:08.987Z,91.30
2018-01-16T05:03:44.549Z,91.60
2018-01-16T05:06:20.021Z,91.60
2018-01-16T05:08:54.952Z,92.30
2018-01-16T05:11:30.994Z,92.80
2018-01-16T05:14:06.265Z,92.90
2018-01-16T05:16:40.046Z,92.80
2018-01-16T05:19:13.888Z,92.80
2018-01-16T05:21:48.573Z,92.60
2018-01-16T05:24:22.446Z,92.10
2018-01-16T05:26:56.325Z,91.90
2018-01-16T05:29:30.690Z,91.20
2018-01-16T05:32:05.838Z,91.10
2018-01-16T05:34:40.038Z,90.70
2018-01-16T05:37:14.950Z,90.80
2018-01-16T05:39:48.972Z,90.50
2018-01-16T05:42:24.381Z,87.80
2018-01-16T05:44:58.216Z,86.90
2018-01-16T05:47:33.008Z,89.80
2018-01-16T05:50:06.886Z,91.70
2018-01-16T05:52:42.003Z,92.80
2018-01-16T05:55:17.206Z,93.80
2018-01-16T05:57:52.222Z,95.50
2018-01-16T06:00:27.463Z,96.50
2018-01-16T06:03:01.913Z,94.70
2018-01-16T06:05:35.870Z,93.50
2018-01-16T06:08:09.821Z,93.30
2018-01-16T06:10:43.868Z,92.30
2018-01-16T06:13:17.656Z,90.60
2018-01-16T06:15:51.624Z,90.60
2018-01-16T06:18:25.367Z,90.00
2018-01-16T06:20:59.188Z,89.40
2018-01-16T06:23:32.845Z,90.50
2018-01-16T06:26:07.110Z,90.20
2018-01-16T06:28:41.205Z,90.20
2018-01-16T06:31:16.191Z,91.30
2018-01-16T06:33:50.460Z,91.30
2018-01-16T06:36:24.331Z,90.90
2018-01-16T06:38:58.846Z,91.60
2018-01-16T06:41:32.772Z,91.60
2018-01-16T06:44:07.211Z,89.30
2018-01-16T06:46:41.879Z,88.80
2018-01-16T06:49:16.210Z,88.40
2018-01-16T06:51:50.418Z,86.80
2018-01-16T06:54:24.187Z,84.60
2018-01-16T06:56:58.520Z,85.10
2018-01-16T06:59:32.370Z,85.50
2018-01-16T07:02:06.442Z,84.70
2018-01-16T07:04:41.386Z,85.40
2018-01-16T07:07:15.338Z,85.30
2018-01-16T07:09:49.145Z,86.10
2018-01-16T07:12:23.286Z,87.90
2018-01-16T07:14:57.873Z,80.90
2018-01-16T07:17:32.819Z,80.90
2018-01-16T07:20:06.706Z,75.70
2018-01-16T07:22:41.463Z,74.40
2018-01-16T07:25:15.453Z,75.50
2018-01-16T07:27:49.698Z,75.00
2018-01-16T07:30:24.061Z,77.90
2018-01-16T07:32:58.025Z,79.00
2018-01-16T07:35:31.770Z,80.40
2018-01-16T07:38:06.456Z,78.80
2018-01-16T07:40:42.537Z,78.90
2018-01-16T07:43:16.641Z,77.90
2018-01-16T07:45:50.384Z,77.10
2018-01-16T07:48:26.137Z,74.40
2018-01-16T07:51:00.980Z,75.50
2018-01-16T07:53:35.052Z,75.30
2018-01-16T07:56:09.091Z,76.70
2018-01-16T07:58:42.943Z,76.40
2018-01-16T08:01:16.983Z,76.60
2018-01-16T08:03:51.704Z,77.70
2018-01-16T08:06:25.578Z,77.60
2018-01-16T08:08:59.661Z,77.60
2018-01-16T08:11:34.346Z,82.10
2018-01-16T08:14:09.488Z,80.40
2018-01-16T08:16:43.255Z,80.40
2018-01-16T08:19:17.251Z,78.80
2018-01-16T08:21:51.161Z,77.20
2018-01-16T08:24:25.534Z,77.90
2018-01-16T08:26:59.567Z,79.50
2018-01-16T08:29:33.664Z,82.10
2018-01-16T08:32:07.428Z,83.80
2018-01-16T08:34:41.446Z,87.80
2018-01-16T08:37:15.148Z,86.30
2018-01-16T08:39:49.340Z,87.70
2018-01-16T08:42:23.364Z,88.50
2018-01-16T08:44:57.198Z,85.90
2018-01-16T08:47:31.058Z,85.20
2018-01-16T08:50:05.250Z,85.00
2018-01-16T08:52:40.151Z,85.40
2018-01-16T08:55:14.358Z,85.20
2018-01-16T08:57:48.698Z,85.00
2018-01-16T09:00:22.983Z,85.10
2018-01-16T09:02:57.162Z,84.40
2018-01-16T09:05:31.163Z,84.50
2018-01-16T09:08:05.963Z,88.50
2018-01-16T09:10:40.968Z,92.40
2018-01-16T09:13:16.943Z,94.30
2018-01-16T09:15:51.904Z,96.50
2018-01-16T09:18:26.504Z,96.90
2018-01-16T09:21:00.407Z,96.90
2018-01-16T09:23:35.302Z,97.20
2018-01-16T09:26:09.088Z,97.20
2018-01-16T09:28:43.664Z,97.10
2018-01-16T09:31:17.831Z,97.00
2018-01-16T09:33:52.200Z,97.50
2018-01-16T09:36:27.137Z,96.90
2018-01-16T09:39:01.400Z,97.20
2018-01-16T09:41:35.706Z,97.00
2018-01-16T09:44:09.554Z,96.50
2018-01-16T09:46:43.326Z,95.70
2018-01-16T09:49:17.501Z,94.00
2018-01-16T09:51:52.560Z,92.10
2018-01-16T09:54:26.678Z,92.00
2018-01-16T09:57:00.818Z,91.90
2018-01-16T09:59:39.081Z,94.40
2018-01-16T10:02:15.339Z,94.40
2018-01-16T10:04:49.907Z,96.90
2018-01-16T10:07:24.989Z,96.60
2018-01-16T10:09:58.693Z,96.50
2018-01-16T10:12:33.872Z,96.60
2018-01-16T10:15:07.946Z,97.10
2018-01-16T10:17:42.098Z,97.10
2018-01-16T10:20:16.380Z,97.80
2018-01-16T10:22:50.494Z,99.10
2018-01-16T10:25:24.688Z,99.90
2018-01-16T10:27:58.417Z,99.90
2018-01-16T10:30:32.285Z,99.90
2018-01-16T10:33:06.460Z,99.90
2018-01-16T10:35:41.055Z,99.90
2018-01-16T10:38:14.956Z,99.90
2018-01-16T10:40:49.712Z,99.90
2018-01-16T10:43:23.760Z,99.90
2018-01-16T10:45:58.391Z,99.90
2018-01-16T10:48:32.227Z,99.90
2018-01-16T10:51:06.225Z,99.90
2018-01-16T10:53:40.951Z,99.90
2018-01-16T10:56:15.936Z,99.90
2018-01-16T10:58:50.153Z,99.90
2018-01-16T11:01:24.435Z,99.90
2018-01-16T11:03:58.372Z,99.90
2018-01-16T11:06:33.120Z,99.90
2018-01-16T11:09:07.458Z,99.90
2018-01-16T11:11:42.604Z,99.90
2018-01-16T11:14:16.402Z,99.90
2018-01-16T11:16:50.493Z,99.90
2018-01-16T11:19:25.312Z,99.90
2018-01-16T11:21:59.271Z,99.90
2018-01-16T11:24:33.417Z,99.90
2018-01-16T11:27:08.163Z,99.90
2018-01-16T11:29:42.668Z,98.50
2018-01-16T11:32:16.735Z,98.40
2018-01-16T11:34:50.785Z,95.80
2018-01-16T11:37:25.711Z,91.70
2018-01-16T11:40:00.788Z,91.50
2018-01-16T11:42:34.626Z,91.70
2018-01-16T11:45:09.481Z,96.20
2018-01-16T11:47:43.258Z,96.10
2018-01-16T11:50:17.875Z,99.90
2018-01-16T11:52:52.222Z,98.50
2018-01-16T11:55:26.218Z,99.90
2018-01-16T11:58:00.061Z,99.90
2018-01-16T12:00:34.488Z,99.90
2018-01-16T12:03:08.496Z,99.90
2018-01-16T12:05:43.291Z,99.90
2018-01-16T12:08:17.201Z,99.90
2018-01-16T12:10:51.686Z,99.90
2018-01-16T12:13:25.463Z,99.90
2018-01-16T12:15:59.477Z,99.90
2018-01-16T12:18:33.432Z,99.90
2018-01-16T12:21:07.581Z,99.90
2018-01-16T12:23:41.564Z,99.90
2018-01-16T12:26:16.418Z,99.90
2018-01-16T12:28:50.500Z,99.90
2018-01-16T12:31:25.561Z,99.90
2018-01-16T12:33:59.724Z,99.90
2018-01-16T12:36:34.446Z,99.90
2018-01-16T12:39:08.388Z,99.90
2018-01-16T12:41:42.126Z,99.90
2018-01-16T12:44:17.422Z,99.90
2018-01-16T12:46:52.219Z,99.90
2018-01-16T12:49:26.942Z,99.90
2018-01-16T12:52:01.240Z,99.90
2018-01-16T12:54:35.162Z,99.90
2018-01-16T12:57:09.216Z,99.90
2018-01-16T12:59:43.338Z,99.80
2018-01-16T13:02:17.344Z,99.90
2018-01-16T13:04:51.908Z,99.90
2018-01-16T13:07:25.785Z,99.90
2018-01-16T13:09:59.885Z,99.90
2018-01-16T13:12:34.088Z,99.90
2018-01-16T13:15:08.101Z,99.90
2018-01-16T13:17:41.992Z,99.90
2018-01-16T13:20:16.319Z,99.90
2018-01-16T13:22:51.381Z,99.90
2018-01-16T13:25:25.413Z,99.90
2018-01-16T13:27:59.958Z,99.90
2018-01-16T13:30:35.096Z,99.90
2018-01-16T13:33:08.804Z,99.90
2018-01-16T13:35:42.604Z,99.90
2018-01-16T13:38:16.797Z,99.90
2018-01-16T13:40:50.673Z,99.90
2018-01-16T13:43:24.442Z,99.90
2018-01-16T13:45:58.511Z,99.90
2018-01-16T13:48:32.420Z,99.90
2018-01-16T13:51:07.139Z,99.90
2018-01-16T13:53:41.539Z,99.90
2018-01-16T13:56:15.534Z,99.90
2018-01-16T13:58:49.425Z,99.90
2018-01-16T14:01:23.661Z,99.90
2018-01-16T14:03:57.631Z,99.90
2018-01-16T14:06:31.698Z,99.90
2018-01-16T14:09:05.612Z,99.90
2018-01-16T14:11:39.611Z,99.90
2018-01-16T14:14:14.252Z,99.90
2018-01-16T14:16:48.254Z,99.90
2018-01-16T14:19:22.775Z,99.90
2018-01-16T14:21:57.021Z,99.90
2018-01-16T14:24:30.947Z,99.90
2018-01-16T14:27:05.404Z,99.90
2018-01-16T14:29:40.341Z,99.90
2018-01-16T14:32:14.426Z,99.90
2018-01-16T14:34:49.116Z,99.90
2018-01-16T14:37:24.124Z,99.90
2018-01-16T14:39:57.976Z,99.90
2018-01-16T14:42:32.249Z,99.90
2018-01-16T14:45:06.741Z,99.90
2018-01-16T14:47:41.638Z,99.90
2018-01-16T14:50:15.786Z,99.90
2018-01-16T14:52:49.624Z,99.90
2018-01-16T14:55:23.829Z,99.90
2018-01-16T14:57:58.139Z,99.90
2018-01-16T15:00:33.074Z,99.90
2018-01-16T15:03:07.092Z,99.90
2018-01-16T15:05:41.358Z,99.90
2018-01-16T15:08:15.472Z,99.90
2018-01-16T15:10:50.248Z,99.90
2018-01-16T15:13:25.155Z,99.90
2018-01-16T15:15:59.576Z,99.90
2018-01-16T15:18:34.407Z,99.90
2018-01-16T15:21:08.588Z,99.90
2018-01-16T15:23:42.556Z,99.90
2018-01-16T15:26:17.285Z,99.90
2018-01-16T15:28:52.577Z,99.90
2018-01-16T15:31:27.523Z,99.90
2018-01-16T15:34:02.420Z,99.90
2018-01-16T15:36:37.430Z,99.90
2018-01-16T15:39:12.249Z,99.90
2018-01-16T15:41:46.452Z,99.90
2018-01-16T15:44:20.495Z,99.90
2018-01-16T15:46:55.514Z,99.90
2018-01-16T15:49:31.615Z,99.90
2018-01-16T15:52:05.891Z,99.90
2018-01-16T15:54:41.263Z,99.90
2018-01-16T15:57:16.233Z,99.90
2018-01-16T15:59:50.070Z,99.90
2018-01-16T16:02:24.340Z,99.90
2018-01-16T16:04:58.314Z,99.90
2018-01-16T16:07:32.276Z,99.90
2018-01-16T16:10:06.606Z,99.90
2018-01-16T16:12:40.619Z,99.90
2018-01-16T16:15:14.929Z,99.90
2018-01-16T16:17:48.809Z,99.90
2018-01-16T16:20:23.748Z,99.90
2018-01-16T16:22:58.560Z,99.90
2018-01-16T16:25:34.036Z,99.90
2018-01-16T16:28:09.178Z,99.90
2018-01-16T16:30:43.846Z,99.90
2018-01-16T16:33:18.136Z,99.90
2018-01-16T16:35:52.607Z,99.90
2018-01-16T16:38:27.237Z,99.90
2018-01-16T16:41:02.188Z,99.90
2018-01-16T16:43:36.518Z,99.90
2018-01-16T16:46:10.463Z,99.90
2018-01-16T16:48:44.072Z,99.90
2018-01-16T16:51:17.897Z,99.90
2018-01-16T16:53:51.659Z,99.90
2018-01-16T16:56:25.321Z,99.90
2018-01-16T16:58:58.913Z,99.90
2018-01-16T17:01:33.539Z,99.90
2018-01-16T17:04:07.144Z,99.90
2018-01-16T17:06:40.885Z,99.90
2018-01-16T17:09:15.451Z,99.90
2018-01-16T17:11:49.089Z,99.90
2018-01-16T17:14:22.660Z,99.90
2018-01-16T17:16:56.513Z,99.90
2018-01-16T17:19:30.912Z,99.90
2018-01-16T17:22:04.694Z,99.90
2018-01-16T17:24:38.310Z,99.90
2018-01-16T17:27:12.000Z,99.90
2018-01-16T17:29:45.582Z,99.90
2018-01-16T17:32:19.163Z,99.90
2018-01-16T17:34:52.781Z,99.90
2018-01-16T17:37:27.286Z,99.90
2018-01-16T17:40:00.866Z,99.90
2018-01-16T17:42:34.611Z,99.90
2018-01-16T17:45:08.908Z,99.90
2018-01-16T17:47:42.498Z,99.90
2018-01-16T17:50:16.020Z,99.90
2018-01-16T17:52:50.425Z,99.90
2018-01-16T17:55:24.088Z,99.90
2018-01-16T17:57:57.714Z,99.90
2018-01-16T18:00:31.299Z,99.90
2018-01-16T18:03:04.854Z,99.90
2018-01-16T18:05:38.418Z,99.90
2018-01-16T18:08:12.019Z,99.90
2018-01-16T18:10:45.540Z,99.90
2018-01-16T18:13:19.138Z,99.90
2018-01-16T18:15:52.703Z,99.90
2018-01-16T18:18:26.452Z,99.90
2018-01-16T18:21:00.025Z,99.90
2018-01-16T18:23:33.675Z,99.90
2018-01-16T18:26:07.247Z,99.90
2018-01-16T18:28:40.836Z,99.90
2018-01-16T18:31:15.150Z,99.90
2018-01-16T18:33:49.483Z,99.90
2018-01-16T18:36:23.172Z,99.90
2018-01-16T18:38:56.771Z,99.90
2018-01-16T18:41:30.499Z,99.90
2018-01-16T18:44:05.000Z,99.90
2018-01-16T18:46:38.626Z,99.90
2018-01-16T18:49:12.937Z,99.90
2018-01-16T18:51:46.524Z,99.90
2018-01-16T18:54:20.849Z,99.90
2018-01-16T18:56:54.507Z,99.90
2018-01-16T18:59:28.143Z,99.90
2018-01-16T19:02:01.716Z,99.90
2018-01-16T19:04:35.566Z,99.90
2018-01-16T19:07:09.110Z,99.90
2018-01-16T19:09:42.745Z,99.90
2018-01-16T19:12:16.271Z,99.90
2018-01-16T19:14:49.912Z,99.90
2018-01-16T19:17:23.549Z,99.90
2018-01-16T19:19:57.128Z,99.90
2018-01-16T19:22:30.728Z,99.90
2018-01-16T19:25:04.271Z,99.90
2018-01-16T19:27:37.827Z,99.90
2018-01-16T19:30:11.334Z,99.90
2018-01-16T19:32:44.902Z,99.90
2018-01-16T19:35:18.809Z,99.90
2018-01-16T19:37:52.429Z,99.90
2018-01-16T19:40:25.950Z,99.90
2018-01-16T19:42:59.524Z,99.90
2018-01-16T19:45:33.175Z,99.90
2018-01-16T19:48:06.746Z,99.90
2018-01-16T19:50:40.276Z,99.90
2018-01-16T19:53:13.818Z,99.90
2018-01-16T19:55:47.375Z,99.90
2018-01-16T19:58:20.935Z,99.90
2018-01-16T20:00:54.495Z,99.90
2018-01-16T20:03:28.188Z,99.90
2018-01-16T20:06:01.940Z,99.90
2018-01-16T20:08:35.667Z,99.90
2018-01-16T20:11:09.299Z,99.90
2018-01-16T20:13:45.648Z,99.90
2018-01-16T20:16:20.109Z,99.90
2018-01-16T20:18:54.601Z,99.90
2018-01-16T20:21:28.274Z,99.90
2018-01-16T20:24:01.817Z,99.90
2018-01-16T20:26:36.519Z,99.90
2018-01-16T20:29:10.170Z,99.90
2018-01-16T20:31:43.797Z,99.90
2018-01-16T20:34:17.460Z,99.90
2018-01-16T20:36:51.147Z,99.90
2018-01-16T20:39:25.472Z,99.90
2018-01-16T20:42:00.051Z,99.90
2018-01-16T20:44:33.798Z,99.90
2018-01-16T20:47:08.176Z,99.90
2018-01-16T20:49:41.890Z,99.90
2018-01-16T20:52:15.450Z,99.90
2018-01-16T20:54:49.100Z,99.90
2018-01-16T20:57:22.694Z,99.90
2018-01-16T20:59:56.240Z,99.90
2018-01-16T21:02:30.600Z,99.90
2018-01-16T21:05:04.148Z,99.90
2018-01-16T21:07:37.823Z,99.90
2018-01-16T21:10:11.595Z,99.90
2018-01-16T21:12:45.185Z,99.90
2018-01-16T21:15:18.894Z,99.90
2018-01-16T21:17:52.648Z,99.90
2018-01-16T21:20:26.207Z,99.90
2018-01-16T21:22:59.783Z,99.90
2018-01-16T21:25:33.419Z,99.90
2018-01-16T21:28:08.138Z,99.90
2018-01-16T21:30:41.628Z,99.90
2018-01-16T21:33:15.947Z,99.90
2018-01-16T21:35:49.577Z,99.90
2018-01-16T21:38:24.592Z,99.90
2018-01-16T21:41:00.662Z,99.90
2018-01-16T21:43:34.478Z,99.90
2018-01-16T21:46:27.815Z,99.90
2018-01-16T21:49:06.654Z,99.90
2018-01-16T21:51:48.928Z,99.90
2018-01-16T21:54:28.994Z,99.90
2018-01-16T21:57:02.746Z,99.90
2018-01-16T21:59:37.029Z,99.90
2018-01-16T22:02:10.527Z,99.90
2018-01-16T22:04:47.345Z,99.90
2018-01-16T22:07:21.052Z,99.90
2018-01-16T22:09:57.080Z,99.90
2018-01-16T22:15:28.899Z,99.90
2018-01-16T22:18:09.324Z,99.90
2018-01-16T22:20:43.846Z,99.90
2018-01-16T22:23:18.334Z,99.90
2018-01-16T22:25:52.061Z,99.90
2018-01-16T22:28:26.511Z,99.90
2018-01-16T22:31:00.293Z,99.90
2018-01-16T22:33:34.129Z,99.90
2018-01-16T22:36:08.537Z,99.90
2018-01-16T22:38:42.367Z,99.90
2018-01-16T22:41:16.757Z,99.90
2018-01-16T22:43:51.398Z,99.90
2018-01-16T22:46:25.146Z,99.90
2018-01-16T22:48:59.838Z,99.90
2018-01-16T22:51:33.510Z,99.90
2018-01-16T22:54:07.120Z,99.90
2018-01-16T22:56:40.828Z,99.90
2018-01-16T22:59:14.653Z,99.90
2018-01-16T23:01:48.390Z,99.90
2018-01-16T23:04:21.963Z,99.90
2018-01-16T23:06:55.499Z,99.90
2018-01-16T23:09:29.063Z,99.90
2018-01-16T23:12:02.651Z,99.90
2018-01-16T23:14:36.364Z,99.90
2018-01-16T23:17:09.971Z,99.90
2018-01-16T23:19:43.479Z,99.90
2018-01-16T23:22:17.804Z,99.90
2018-01-16T23:24:51.320Z,99.90
2018-01-16T23:27:24.916Z,99.90
2018-01-16T23:29:58.572Z,99.90
2018-01-16T23:32:32.159Z,99.90
2018-01-16T23:35:05.723Z,99.90
2018-01-16T23:37:39.266Z,99.90
2018-01-16T23:40:12.783Z,99.90
2018-01-16T23:42:46.379Z,99.90
2018-01-16T23:45:20.031Z,99.90
2018-01-16T23:47:54.504Z,99.90
2018-01-16T23:50:29.016Z,99.90
2018-01-16T23:53:03.340Z,99.90
2018-01-16T23:55:37.108Z,99.90
2018-01-16T23:58:11.420Z,99.90
